sensor_id;sensor_type;location;lat;lon;timestamp;temperature;humidity
15617;DHT22;7908;51.688;7.130;2024-01-10T00:00:31;-4.70;99.90
15617;DHT22;7908;51.688;7.130;2024-01-10T00:03:26;-6.00;99.90
15617;DHT22;7908;51.688;7.130;2024-01-10T00:06:19;-4.90;99.90
15617;DHT22;7908;51.688;7.130;2024-01-10T00:09:00;-4.40;99.90
15617;DHT22;7908;51.688;7.130;2024-01-10T00:11:29;-4.40;99.90
15617;DHT22;7908;51.688;7.130;2024-01-10T00:14:01;-4.50;99.90
15617;DHT22;7908;51.688;7.130;2024-01-10T00:16:35;-4.40;99.90
15617;DHT22;7908;51.688;7.130;2024-01-10T00:19:10;-4.50;99.90
15617;DHT22;7908;51.688;7.130;2024-01-10T00:21:46;-4.30;99.90
15617;DHT22;7908;51.688;7.130;2024-01-10T00:27:36;-4.50;99.90
15617;DHT22;7908;51.688;7.130;2024-01-10T00:30:09;-4.90;99.90
15617;DHT22;7908;51.688;7.130;2024-01-10T00:32:43;-5.70;99.90
15617;DHT22;7908;51.688;7.130;2024-01-10T00:35:15;-4.60;99.90
15617;DHT22;7908;51.688;7.130;2024-01-10T00:37:44;-4.50;99.90
15617;DHT22;7908;51.688;7.130;2024-01-10T00:40:14;-4.60;99.90
15617;DHT22;7908;51.688;7.130;2024-01-10T00:42:45;-4.60;99.90
15617;DHT22;7908;51.688;7.130;2024-01-10T00:45:18;-4.60;99.90
15617;DHT22;7908;51.688;7.130;2024-01-10T00:48:06;-4.70;99.90
15617;DHT22;7908;51.688;7.130;2024-01-10T00:51:08;-4.60;99.90
15617;DHT22;7908;51.688;7.130;2024-01-10T00:53:47;-4.70;99.90
15617;DHT22;7908;51.688;7.130;2024-01-10T00:56:23;-5.30;99.90
15617;DHT22;7908;51.688;7.130;2024-01-10T00:59:31;-4.70;99.90
15617;DHT22;7908;51.688;7.130;2024-01-10T01:03:10;-5.20;99.90
15617;DHT22;7908;51.688;7.130;2024-01-10T01:08:14;-5.00;99.90
15617;DHT22;7908;51.688;7.130;2024-01-10T01:09:21;-5.70;99.90
15617;DHT22;7908;51.688;7.130;2024-01-10T01:12:30;-4.80;99.90
15617;DHT22;7908;51.688;7.130;2024-01-10T01:15:40;-4.80;99.90
15617;DHT22;7908;51.688;7.130;2024-01-10T01:18:27;-4.80;99.90
15617;DHT22;7908;51.688;7.130;2024-01-10T01:21:19;-5.30;99.90
15617;DHT22;7908;51.688;7.130;2024-01-10T01:24:17;-5.20;99.90
15617;DHT22;7908;51.688;7.130;2024-01-10T01:27:12;-5.00;99.90
15617;DHT22;7908;51.688;7.130;2024-01-10T01:30:25;-4.90;99.90
15617;DHT22;7908;51.688;7.130;2024-01-10T01:36:09;-5.00;99.90
15617;DHT22;7908;51.688;7.130;2024-01-10T01:38:49;-4.90;99.90
15617;DHT22;7908;51.688;7.130;2024-01-10T01:41:31;-3.60;99.90
15617;DHT22;7908;51.688;7.130;2024-01-10T01:44:00;-5.00;99.90
15617;DHT22;7908;51.688;7.130;2024-01-10T01:46:29;-5.10;99.90
15617;DHT22;7908;51.688;7.130;2024-01-10T01:49:01;-5.00;99.90
15617;DHT22;7908;51.688;7.130;2024-01-10T01:58:48;-5.80;99.90
15617;DHT22;7908;51.688;7.130;2024-01-10T02:01:18;-5.00;99.90
15617;DHT22;7908;51.688;7.130;2024-01-10T02:03:49;-5.00;99.90
15617;DHT22;7908;51.688;7.130;2024-01-10T02:06:21;-5.40;99.90
15617;DHT22;7908;51.688;7.130;2024-01-10T02:08:50;-5.10;99.90
15617;DHT22;7908;51.688;7.130;2024-01-10T02:11:27;-4.90;99.90
15617;DHT22;7908;51.688;7.130;2024-01-10T02:14:01;-5.10;99.90
15617;DHT22;7908;51.688;7.130;2024-01-10T02:16:34;-5.10;99.90
15617;DHT22;7908;51.688;7.130;2024-01-10T02:19:17;-5.10;99.90
15617;DHT22;7908;51.688;7.130;2024-01-10T02:21:58;-6.00;99.90
15617;DHT22;7908;51.688;7.130;2024-01-10T02:24:39;-5.20;99.90
15617;DHT22;7908;51.688;7.130;2024-01-10T02:27:13;-5.20;99.90
15617;DHT22;7908;51.688;7.130;2024-01-10T02:29:47;-5.20;99.90
15617;DHT22;7908;51.688;7.130;2024-01-10T02:32:16;-5.30;99.90
15617;DHT22;7908;51.688;7.130;2024-01-10T02:34:45;-5.20;99.90
15617;DHT22;7908;51.688;7.130;2024-01-10T02:37:14;-5.20;99.90
15617;DHT22;7908;51.688;7.130;2024-01-10T02:39:46;-5.20;99.90
15617;DHT22;7908;51.688;7.130;2024-01-10T02:42:16;-5.30;99.90
15617;DHT22;7908;51.688;7.130;2024-01-10T02:44:45;-5.30;99.90
15617;DHT22;7908;51.688;7.130;2024-01-10T02:47:15;-5.40;99.90
15617;DHT22;7908;51.688;7.130;2024-01-10T02:49:51;-5.40;99.90
15617;DHT22;7908;51.688;7.130;2024-01-10T02:53:28;-5.30;99.90
15617;DHT22;7908;51.688;7.130;2024-01-10T02:56:33;-5.30;99.90
15617;DHT22;7908;51.688;7.130;2024-01-10T03:16:20;-5.90;99.90
15617;DHT22;7908;51.688;7.130;2024-01-10T03:19:08;-6.30;99.90
15617;DHT22;7908;51.688;7.130;2024-01-10T03:21:57;-5.80;99.90
15617;DHT22;7908;51.688;7.130;2024-01-10T03:28:13;-6.10;99.90
15617;DHT22;7908;51.688;7.130;2024-01-10T03:31:07;-6.00;99.90
15617;DHT22;7908;51.688;7.130;2024-01-10T03:33:38;-5.40;99.90
15617;DHT22;7908;51.688;7.130;2024-01-10T03:36:10;-5.40;99.90
15617;DHT22;7908;51.688;7.130;2024-01-10T03:38:39;-5.40;99.90
15617;DHT22;7908;51.688;7.130;2024-01-10T03:41:20;-5.50;99.90
15617;DHT22;7908;51.688;7.130;2024-01-10T03:44:41;-6.00;99.90
15617;DHT22;7908;51.688;7.130;2024-01-10T03:47:58;-5.40;99.90
15617;DHT22;7908;51.688;7.130;2024-01-10T03:50:35;-5.80;99.90
15617;DHT22;7908;51.688;7.130;2024-01-10T03:53:05;-5.50;99.90
15617;DHT22;7908;51.688;7.130;2024-01-10T03:55:46;-5.60;99.90
15617;DHT22;7908;51.688;7.130;2024-01-10T03:58:48;-5.50;99.90
15617;DHT22;7908;51.688;7.130;2024-01-10T04:01:21;-5.50;99.90
15617;DHT22;7908;51.688;7.130;2024-01-10T04:06:31;-5.60;99.90
15617;DHT22;7908;51.688;7.130;2024-01-10T04:09:00;-5.50;99.90
15617;DHT22;7908;51.688;7.130;2024-01-10T04:39:00;-7.20;99.90
15617;DHT22;7908;51.688;7.130;2024-01-10T04:41:34;-5.70;99.90
15617;DHT22;7908;51.688;7.130;2024-01-10T04:44:05;-5.80;99.90
15617;DHT22;7908;51.688;7.130;2024-01-10T04:46:34;-5.90;99.90
15617;DHT22;7908;51.688;7.130;2024-01-10T04:49:07;-6.30;99.90
15617;DHT22;7908;51.688;7.130;2024-01-10T04:51:41;-5.60;99.90
15617;DHT22;7908;51.688;7.130;2024-01-10T04:54:12;-6.00;99.90
15617;DHT22;7908;51.688;7.130;2024-01-10T04:56:41;-6.70;99.90
15617;DHT22;7908;51.688;7.130;2024-01-10T04:59:11;-5.80;99.90
15617;DHT22;7908;51.688;7.130;2024-01-10T05:01:42;-7.20;99.90
15617;DHT22;7908;51.688;7.130;2024-01-10T05:04:17;-6.50;99.90
15617;DHT22;7908;51.688;7.130;2024-01-10T05:06:46;-6.60;99.90
15617;DHT22;7908;51.688;7.130;2024-01-10T05:09:17;-5.70;99.90
15617;DHT22;7908;51.688;7.130;2024-01-10T05:11:46;-5.70;99.90
15617;DHT22;7908;51.688;7.130;2024-01-10T05:14:19;-5.80;99.90
15617;DHT22;7908;51.688;7.130;2024-01-10T05:16:48;-4.50;99.90
15617;DHT22;7908;51.688;7.130;2024-01-10T05:19:17;-4.50;99.90
15617;DHT22;7908;51.688;7.130;2024-01-10T05:21:47;-5.90;99.90
15617;DHT22;7908;51.688;7.130;2024-01-10T05:24:17;-5.60;99.90
15617;DHT22;7908;51.688;7.130;2024-01-10T05:28:06;-6.50;99.90
15617;DHT22;7908;51.688;7.130;2024-01-10T05:29:37;-6.50;99.90
15617;DHT22;7908;51.688;7.130;2024-01-10T05:32:06;-5.80;99.90
15617;DHT22;7908;51.688;7.130;2024-01-10T05:34:35;-6.90;99.90
15617;DHT22;7908;51.688;7.130;2024-01-10T05:37:04;-5.60;99.90
15617;DHT22;7908;51.688;7.130;2024-01-10T05:39:35;-4.20;99.90
15617;DHT22;7908;51.688;7.130;2024-01-10T05:42:04;-5.80;99.90
15617;DHT22;7908;51.688;7.130;2024-01-10T05:44:34;-7.20;99.90
15617;DHT22;7908;51.688;7.130;2024-01-10T05:47:03;-5.90;99.90
15617;DHT22;7908;51.688;7.130;2024-01-10T05:49:32;-5.90;99.90
15617;DHT22;7908;51.688;7.130;2024-01-10T05:52:01;-5.90;99.90
15617;DHT22;7908;51.688;7.130;2024-01-10T05:54:30;-5.90;99.90
15617;DHT22;7908;51.688;7.130;2024-01-10T05:57:01;-6.90;99.90
15617;DHT22;7908;51.688;7.130;2024-01-10T05:59:40;-5.90;99.90
15617;DHT22;7908;51.688;7.130;2024-01-10T06:02:14;-5.90;99.90
15617;DHT22;7908;51.688;7.130;2024-01-10T06:04:48;-5.90;99.90
15617;DHT22;7908;51.688;7.130;2024-01-10T06:07:42;-6.30;99.90
15617;DHT22;7908;51.688;7.130;2024-01-10T06:10:17;-6.10;99.90
15617;DHT22;7908;51.688;7.130;2024-01-10T16:32:45;-2.00;99.90
15617;DHT22;7908;51.688;7.130;2024-01-10T16:38:39;-2.10;99.90
15617;DHT22;7908;51.688;7.130;2024-01-10T16:41:28;-2.10;99.90
15617;DHT22;7908;51.688;7.130;2024-01-10T16:44:19;-2.50;99.90
15617;DHT22;7908;51.688;7.130;2024-01-10T16:47:08;-2.10;99.90
15617;DHT22;7908;51.688;7.130;2024-01-10T16:50:06;-2.30;99.90
15617;DHT22;7908;51.688;7.130;2024-01-10T16:58:46;-2.20;99.90
15617;DHT22;7908;51.688;7.130;2024-01-10T17:01:54;-2.60;99.90
15617;DHT22;7908;51.688;7.130;2024-01-10T17:04:29;-2.60;99.90
15617;DHT22;7908;51.688;7.130;2024-01-10T17:07:09;-2.40;99.90
15617;DHT22;7908;51.688;7.130;2024-01-10T17:09:53;-2.30;99.90
15617;DHT22;7908;51.688;7.130;2024-01-10T17:12:35;-2.30;99.90
15617;DHT22;7908;51.688;7.130;2024-01-10T17:15:23;-1.60;99.90
15617;DHT22;7908;51.688;7.130;2024-01-10T17:21:26;-2.40;99.90
15617;DHT22;7908;51.688;7.130;2024-01-10T17:24:26;-3.40;99.90
15617;DHT22;7908;51.688;7.130;2024-01-10T17:27:35;-2.50;99.90
15617;DHT22;7908;51.688;7.130;2024-01-10T17:30:18;-2.40;99.90
15617;DHT22;7908;51.688;7.130;2024-01-10T17:32:52;-2.40;99.90
15617;DHT22;7908;51.688;7.130;2024-01-10T17:35:44;-2.40;99.90
15617;DHT22;7908;51.688;7.130;2024-01-10T17:38:17;-2.50;99.90
15617;DHT22;7908;51.688;7.130;2024-01-10T17:40:57;-2.40;99.90
15617;DHT22;7908;51.688;7.130;2024-01-10T17:43:27;-2.70;99.90
15617;DHT22;7908;51.688;7.130;2024-01-10T17:45:57;-2.30;99.90
15617;DHT22;7908;51.688;7.130;2024-01-10T17:48:42;-2.30;99.90
15617;DHT22;7908;51.688;7.130;2024-01-10T17:51:27;-2.50;99.90
15617;DHT22;7908;51.688;7.130;2024-01-10T17:55:14;-2.50;99.90
15617;DHT22;7908;51.688;7.130;2024-01-10T18:28:29;-2.90;99.90
15617;DHT22;7908;51.688;7.130;2024-01-10T18:30:59;-2.00;99.90
15617;DHT22;7908;51.688;7.130;2024-01-10T18:33:33;-3.10;99.90
15617;DHT22;7908;51.688;7.130;2024-01-10T18:36:13;-2.90;99.90
15617;DHT22;7908;51.688;7.130;2024-01-10T18:38:56;-3.00;99.90
15617;DHT22;7908;51.688;7.130;2024-01-10T18:41:29;-3.10;99.90
15617;DHT22;7908;51.688;7.130;2024-01-10T18:44:03;-3.20;99.90
15617;DHT22;7908;51.688;7.130;2024-01-10T18:46:37;-3.10;99.90
15617;DHT22;7908;51.688;7.130;2024-01-10T18:49:24;-3.10;99.90
15617;DHT22;7908;51.688;7.130;2024-01-10T18:52:02;-3.10;99.90
15617;DHT22;7908;51.688;7.130;2024-01-10T18:54:37;-3.00;99.90
15617;DHT22;7908;51.688;7.130;2024-01-10T18:57:08;-3.00;99.90
15617;DHT22;7908;51.688;7.130;2024-01-10T18:59:45;-3.00;99.90
15617;DHT22;7908;51.688;7.130;2024-01-10T19:02:19;-3.00;99.90
15617;DHT22;7908;51.688;7.130;2024-01-10T19:04:58;-3.00;99.90
15617;DHT22;7908;51.688;7.130;2024-01-10T19:07:35;-3.00;99.90
15617;DHT22;7908;51.688;7.130;2024-01-10T19:10:11;-3.10;99.90
15617;DHT22;7908;51.688;7.130;2024-01-10T19:12:54;-3.10;99.90
15617;DHT22;7908;51.688;7.130;2024-01-10T19:15:40;-3.20;99.90
15617;DHT22;7908;51.688;7.130;2024-01-10T19:18:16;-3.70;99.90
15617;DHT22;7908;51.688;7.130;2024-01-10T19:20:53;-3.20;99.90
15617;DHT22;7908;51.688;7.130;2024-01-10T19:23:28;-3.60;99.90
15617;DHT22;7908;51.688;7.130;2024-01-10T19:41:04;-3.40;99.90
15617;DHT22;7908;51.688;7.130;2024-01-10T19:43:57;-3.50;99.90
15617;DHT22;7908;51.688;7.130;2024-01-10T19:47:06;-3.70;99.90
15617;DHT22;7908;51.688;7.130;2024-01-10T19:50:04;-3.50;99.90
15617;DHT22;7908;51.688;7.130;2024-01-10T19:52:52;-3.70;99.90
15617;DHT22;7908;51.688;7.130;2024-01-10T19:55:49;-3.70;99.90
15617;DHT22;7908;51.688;7.130;2024-01-10T19:58:28;-4.40;99.90
15617;DHT22;7908;51.688;7.130;2024-01-10T20:01:10;-3.70;99.90
15617;DHT22;7908;51.688;7.130;2024-01-10T20:04:18;-4.50;99.90
15617;DHT22;7908;51.688;7.130;2024-01-10T20:07:13;-3.70;99.90
15617;DHT22;7908;51.688;7.130;2024-01-10T20:09:48;-3.80;99.90
15617;DHT22;7908;51.688;7.130;2024-01-10T20:12:39;-3.80;99.90
15617;DHT22;7908;51.688;7.130;2024-01-10T20:15:49;-3.90;99.90
15617;DHT22;7908;51.688;7.130;2024-01-10T20:18:43;-4.00;99.90
15617;DHT22;7908;51.688;7.130;2024-01-10T20:21:33;-3.90;99.90
15617;DHT22;7908;51.688;7.130;2024-01-10T20:24:15;-4.40;99.90
15617;DHT22;7908;51.688;7.130;2024-01-10T20:26:45;-4.00;99.90
15617;DHT22;7908;51.688;7.130;2024-01-10T20:29:34;-4.00;99.90
15617;DHT22;7908;51.688;7.130;2024-01-10T21:14:00;-4.40;99.90
15617;DHT22;7908;51.688;7.130;2024-01-10T21:17:30;-4.40;99.90
15617;DHT22;7908;51.688;7.130;2024-01-10T21:20:23;-3.90;99.90
15617;DHT22;7908;51.688;7.130;2024-01-10T21:23:04;-4.40;99.90
15617;DHT22;7908;51.688;7.130;2024-01-10T21:25:51;-4.40;99.90
15617;DHT22;7908;51.688;7.130;2024-01-10T21:39:40;-4.40;99.90
15617;DHT22;7908;51.688;7.130;2024-01-10T21:51:43;-5.20;99.90
15617;DHT22;7908;51.688;7.130;2024-01-10T21:54:39;-4.70;99.90
15617;DHT22;7908;51.688;7.130;2024-01-10T22:20:29;-3.70;99.90
15617;DHT22;7908;51.688;7.130;2024-01-10T22:23:01;-4.60;99.90
15617;DHT22;7908;51.688;7.130;2024-01-10T22:25:36;-4.70;99.90
15617;DHT22;7908;51.688;7.130;2024-01-10T22:28:09;-4.70;99.90
15617;DHT22;7908;51.688;7.130;2024-01-10T22:30:43;-4.80;99.90
15617;DHT22;7908;51.688;7.130;2024-01-10T22:33:23;-4.70;99.90
15617;DHT22;7908;51.688;7.130;2024-01-10T22:36:08;-4.80;99.90
15617;DHT22;7908;51.688;7.130;2024-01-10T22:38:41;-4.90;99.90
15617;DHT22;7908;51.688;7.130;2024-01-10T22:41:11;-4.90;99.90
15617;DHT22;7908;51.688;7.130;2024-01-10T22:43:41;-4.90;99.90
15617;DHT22;7908;51.688;7.130;2024-01-10T22:46:11;-4.90;99.90
15617;DHT22;7908;51.688;7.130;2024-01-10T22:48:40;-4.90;99.90
15617;DHT22;7908;51.688;7.130;2024-01-10T22:51:13;-4.90;99.90
15617;DHT22;7908;51.688;7.130;2024-01-10T22:53:47;-4.90;99.90
15617;DHT22;7908;51.688;7.130;2024-01-10T22:56:20;-5.00;99.90
15617;DHT22;7908;51.688;7.130;2024-01-10T22:58:52;-4.90;99.90
15617;DHT22;7908;51.688;7.130;2024-01-10T23:01:24;-5.00;99.90
15617;DHT22;7908;51.688;7.130;2024-01-10T23:04:05;-4.90;99.90
15617;DHT22;7908;51.688;7.130;2024-01-10T23:06:35;-4.90;99.90
15617;DHT22;7908;51.688;7.130;2024-01-10T23:09:06;-4.90;99.90
15617;DHT22;7908;51.688;7.130;2024-01-10T23:11:43;-5.00;99.90
15617;DHT22;7908;51.688;7.130;2024-01-10T23:14:16;-4.90;99.90
15617;DHT22;7908;51.688;7.130;2024-01-10T23:16:46;-4.90;99.90
15617;DHT22;7908;51.688;7.130;2024-01-10T23:19:15;-5.00;99.90
15617;DHT22;7908;51.688;7.130;2024-01-10T23:21:45;-5.00;99.90
15617;DHT22;7908;51.688;7.130;2024-01-10T23:24:15;-5.10;99.90
15617;DHT22;7908;51.688;7.130;2024-01-10T23:26:44;-5.10;99.90
15617;DHT22;7908;51.688;7.130;2024-01-10T23:29:13;-5.20;99.90
15617;DHT22;7908;51.688;7.130;2024-01-10T23:31:44;-4.40;99.90
15617;DHT22;7908;51.688;7.130;2024-01-10T23:34:16;-5.20;99.90
15617;DHT22;7908;51.688;7.130;2024-01-10T23:36:47;-5.30;99.90
15617;DHT22;7908;51.688;7.130;2024-01-10T23:39:15;-4.70;99.90
15617;DHT22;7908;51.688;7.130;2024-01-10T23:41:45;-4.80;99.90
15617;DHT22;7908;51.688;7.130;2024-01-10T23:44:14;-5.60;99.90
15617;DHT22;7908;51.688;7.130;2024-01-10T23:46:46;-5.40;99.90
15617;DHT22;7908;51.688;7.130;2024-01-10T23:49:15;-5.40;99.90
15617;DHT22;7908;51.688;7.130;2024-01-10T23:51:44;-5.40;99.90
15617;DHT22;7908;51.688;7.130;2024-01-10T23:54:16;-5.30;99.90
15617;DHT22;7908;51.688;7.130;2024-01-10T23:56:45;-4.10;99.90
15617;DHT22;7908;51.688;7.130;2024-01-10T23:59:14;-5.40;99.90
